Terminal Aerodrome Forecast
Issued by NWS Tampa Bay Area, FL

Home | Current Version | Previous Version | Text Only | Print | Product List | Glossary Off
Versions: 1 2 3 4 5 6 7 8 9 10 11 12

381
FTUS42 KTBW 221734
TAFSRQ
TAF
KSRQ 221734Z 2218/2318 02008KT P6SM BKN050
     FM222000 01009KT P6SM VCTS SCT035CB BKN060
     FM230000 07008KT P6SM SCT060 BKN250
     FM230400 06005KT P6SM FEW040 BKN250
     FM231400 07008KT P6SM SCT025 BKN250
     FM231700 08008KT P6SM VCSH BKN040=

USA.gov is the U.S. government's official web portal to all federal, state and local government web resources and services.